Wilson Dublin — V2FV4 — position and weather

sailwx.info

Track history (hours):
 
Tides and Currents Weather Stations Pressure Air Temp Water Temp Dewpoint Dewpoint Depression Visibility Wind Speed Wind Dir Waves Ship Positions

Wilson Dublin

Last reported at 2018-Feb-21 21:00 UTC. Time now 2018-Feb-21 21:15 UTC.
Position N 38°43' W 009°50'.

Length 88 m; draft 4.5 m.

Type: Cargo ship. MMSI: 305812000.

Date/timePositionNaut miles runAvg speedWind from/ knotsBaromVisibWave heightAir tempDewpointWater temp
2018-Feb-21 21:00N 38°43' W 009°50'5 9.2
2018-Feb-21 20:31N 38°38' W 009°48'5 9.6
2018-Feb-21 20:00N 38°35' W 009°43'5 9.5
2018-Feb-21 19:30N 38°33' W 009°38'5 9.4
2018-Feb-21 19:00N 38°30' W 009°33'5 9.6
2018-Feb-21 18:30N 38°28' W 009°28'5 9.7
2018-Feb-21 18:00N 38°26' W 009°22'5 9.6
2018-Feb-21 17:30N 38°24' W 009°16'5 9.1
2018-Feb-21 17:00N 38°23' W 009°11'510.1
2018-Feb-21 16:30N 38°24' W 009°04'5 9.9
2018-Feb-21 16:00N 38°26' W 008°59'5 9.0
2018-Feb-21 15:29N 38°30' W 008°55'2 3.3
2018-Feb-21 14:49N 38°31' W 008°53'0 0.0
2018-Feb-21 11:13N 38°31' W 008°53'0 0.0
2018-Feb-21 10:58N 38°31' W 008°53'0 0.0
2018-Feb-21 09:25N 38°31' W 008°53'0 0.0
2018-Feb-21 08:55N 38°31' W 008°53'0 0.0
2018-Feb-21 08:25N 38°31' W 008°53'0 0.0
2018-Feb-21 07:58N 38°31' W 008°53'0 0.0
2018-Feb-21 07:28N 38°31' W 008°53'0 0.0
2018-Feb-21 06:55N 38°31' W 008°53'0 0.0
2018-Feb-21 06:25N 38°31' W 008°53'0 0.0
2018-Feb-21 05:43N 38°31' W 008°53'0 0.0
2018-Feb-21 05:25N 38°31' W 008°53'0 0.0
2018-Feb-21 04:55N 38°31' W 008°53'0 0.0
2018-Feb-21 04:25N 38°31' W 008°53'0 0.0
2018-Feb-21 03:58N 38°31' W 008°53'0 0.0
2018-Feb-21 03:28N 38°31' W 008°53'0 0.0
2018-Feb-21 02:58N 38°31' W 008°53'0 0.0
2018-Feb-21 02:28N 38°31' W 008°53'0 0.0
2018-Feb-21 01:58N 38°31' W 008°53'0 0.0
2018-Feb-21 01:25N 38°31' W 008°53'0 0.0
2018-Feb-21 00:55N 38°31' W 008°53'0 0.0
2018-Feb-21 00:28N 38°31' W 008°53'0 0.0
2018-Feb-20 23:48N 38°31' W 008°53'0 0.4
2018-Feb-20 23:28N 38°31' W 008°53'2 5.3
2018-Feb-20 23:00N 38°30' W 008°55'4 8.6
2018-Feb-20 22:30N 38°26' W 008°59'510.0
2018-Feb-20 22:00N 38°24' W 009°04'510.1
2018-Feb-20 21:30N 38°23' W 009°11'5 9.8
2018-Feb-20 21:00N 38°23' W 009°17'5 9.4
2018-Feb-20 20:30N 38°24' W 009°23'5 9.4
2018-Feb-20 19:59N 38°25' W 009°29'4 9.1
2018-Feb-20 19:30N 38°26' W 009°34'5 9.1
2018-Feb-20 19:00N 38°28' W 009°40'5 9.3
2018-Feb-20 18:30N 38°30' W 009°45'5 9.2
2018-Feb-20 17:58N 38°32' W 009°51'4 9.4
2018-Feb-20 17:30N 38°33' W 009°56'4 9.2
2018-Feb-20 17:00N 38°35' W 010°02'5 9.0
2018-Feb-20 16:30N 38°39' W 010°04'5 9.9
2018-Feb-20 16:00N 38°44' W 010°05'1010.0
2018-Feb-20 14:58N 38°54' W 010°05'5 9.7
2018-Feb-20 14:28N 38°59' W 010°05'510.1
2018-Feb-20 14:00N 39°04' W 010°05'510.2
2018-Feb-20 13:28N 39°09' W 010°05'  
2018-Feb-17 08:24N 50°30' W 005°41'6 9.7
2018-Feb-17 07:48N 50°34' W 005°34'3 9.2
2018-Feb-17 07:30N 50°36' W 005°31'5 8.8
2018-Feb-17 07:00N 50°39' W 005°26'10 7.8
2018-Feb-17 05:44N 50°45' W 005°14'2 7.4
2018-Feb-17 05:30N 50°46' W 005°12'4 7.2
2018-Feb-17 05:00N 50°48' W 005°07'4 7.0
2018-Feb-17 04:30N 50°51' W 005°03'4 7.2
2018-Feb-17 04:00N 50°53' W 004°59'4 7.5
2018-Feb-17 03:30N 50°55' W 004°54'4 7.6
2018-Feb-17 03:00N 50°58' W 004°50'4 8.0
2018-Feb-17 02:30N 51°00' W 004°45'5 8.4
2018-Feb-17 01:55N 51°03' W 004°39'3 8.6
2018-Feb-17 01:30N 51°05' W 004°34'6610.8
2018-Feb-16 19:23N 51°33' W 002°58'0 0.0
2018-Feb-15 19:11N 51°34' W 002°58'0 1.6
2018-Feb-15 18:57N 51°33' W 002°58'1 2.5
2018-Feb-15 18:30N 51°32' W 002°59'4 7.0
2018-Feb-15 18:00N 51°29' W 003°01'510.2
2018-Feb-15 17:29N 51°25' W 003°05'713.8
2018-Feb-15 17:00N 51°21' W 003°15'13 3.1
2018-Feb-15 12:54N 51°22' W 003°35'32 6.5
2018-Feb-15 08:00N 51°23' W 004°26'21 9.9
2018-Feb-15 05:51N 51°29' W 004°59'410.0
2018-Feb-15 05:30N 51°32' W 005°03'510.0
2018-Feb-15 05:01N 51°35' W 005°10'510.3
2018-Feb-15 04:31N 51°38' W 005°16'510.0
2018-Feb-15 03:59N 51°42' W 005°22'6210.4
2018-Feb-14 22:02N 52°44' W 005°29'1 8.5
2018-Feb-14 21:57N 52°44' W 005°29'13 7.5
2018-Feb-14 20:17N 52°57' W 005°32'2 6.5
2018-Feb-14 19:57N 52°59' W 005°33'4 6.9
2018-Feb-14 19:26N 53°02' W 005°35'4 6.4
2018-Feb-14 18:50N 53°06' W 005°37'2 7.0
2018-Feb-14 18:30N 53°08' W 005°39'4 7.3
2018-Feb-14 18:00N 53°11' W 005°41'4 7.9
2018-Feb-14 17:26N 53°15' W 005°43'4 8.8
2018-Feb-14 17:00N 53°19' W 005°46'5 8.9
2018-Feb-14 16:30N 53°23' W 005°49'5 9.5
2018-Feb-14 16:00N 53°28' W 005°51'17 9.2
2018-Feb-14 14:11N 53°42' W 006°07'2 9.6
2018-Feb-14 13:57N 53°43' W 006°10'1 2.9
2018-Feb-14 13:26N 53°44' W 006°12'0 0.0
2018-Feb-14 12:56N 53°44' W 006°12'0 0.0
2018-Feb-14 12:26N 53°44' W 006°12'0 0.0
2018-Feb-14 11:59N 53°44' W 006°12'0 0.0
2018-Feb-14 11:29N 53°44' W 006°12'0 0.0
2018-Feb-14 10:35N 53°44' W 006°12'0 0.3
2018-Feb-14 10:29N 53°44' W 006°12'0 0.1
2018-Feb-14 09:59N 53°44' W 006°12'0 0.0
2018-Feb-14 09:29N 53°44' W 006°12'0 0.0
2018-Feb-14 08:59N 53°44' W 006°12'0 0.0
2018-Feb-14 08:26N 53°44' W 006°12'0 0.0
2018-Feb-14 07:59N 53°44' W 006°12'0 0.0
2018-Feb-14 07:29N 53°44' W 006°12'0 0.1
2018-Feb-14 06:56N 53°44' W 006°11'0 0.0
2018-Feb-14 06:29N 53°44' W 006°11'0 0.0
2018-Feb-14 05:35N 53°44' W 006°11'0 0.0
2018-Feb-14 05:11N 53°44' W 006°11'0 0.0
2018-Feb-14 04:50N 53°44' W 006°11'0 0.1
2018-Feb-14 04:14N 53°44' W 006°11'0 0.1
2018-Feb-14 03:56N 53°44' W 006°11'0 0.0
2018-Feb-14 03:29N 53°44' W 006°11'0 0.0
2018-Feb-14 02:53N 53°44' W 006°11'0 0.1
2018-Feb-14 02:29N 53°44' W 006°11'0 0.1
2018-Feb-14 01:59N 53°44' W 006°11'0 0.1
2018-Feb-14 01:29N 53°44' W 006°11'0 0.0
2018-Feb-14 00:53N 53°44' W 006°11'0 0.0
2018-Feb-14 00:29N 53°44' W 006°11'0 0.1
2018-Feb-13 23:56N 53°44' W 006°11'0 0.0
2018-Feb-13 23:29N 53°44' W 006°11'0 0.0
2018-Feb-13 22:56N 53°44' W 006°11'0 0.0
2018-Feb-13 22:17N 53°44' W 006°11'0 0.1
2018-Feb-13 21:59N 53°44' W 006°11'1 2.1
2018-Feb-13 21:31N 53°43' W 006°13'3 0.1
2018-Feb-12 21:07N 53°43' W 006°18'1 5.9
2018-Feb-12 20:56N 53°44' W 006°16'3 5.9
2018-Feb-12 20:30N 53°44' W 006°12'0 0.7
2018-Feb-12 19:54N 53°44' W 006°11'0 0.0
2018-Feb-12 19:24N 53°44' W 006°11'0 0.0
2018-Feb-12 18:36N 53°44' W 006°11'0 0.1
2018-Feb-12 18:30N 53°44' W 006°11'0 0.1
2018-Feb-12 18:00N 53°44' W 006°11'0 0.0
2018-Feb-12 14:48N 53°44' W 006°11'0 0.0
2018-Feb-12 14:30N 53°44' W 006°11'0 0.0
2018-Feb-12 14:00N 53°44' W 006°11'0 0.0
2018-Feb-12 13:24N 53°44' W 006°11'0 0.0
2018-Feb-12 13:00N 53°44' W 006°11'0 0.0
2018-Feb-12 12:24N 53°44' W 006°11'0 0.0
2018-Feb-12 11:54N 53°44' W 006°11'0 0.0
2018-Feb-12 11:24N 53°44' W 006°11'0 0.2
2018-Feb-12 10:59N 53°44' W 006°11'29 7.5
2018-Feb-12 07:04N 53°18' W 005°46'2311.0
2018-Feb-12 05:00N 52°56' W 005°36'611.4
2018-Feb-12 04:30N 52°51' W 005°37'  
Track history (hours):
 
Tides and Currents Weather Stations Pressure Air Temp Water Temp Dewpoint Dewpoint Depression Visibility Wind Speed Wind Dir Waves Ship Positions

Wilson Dublin

Last reported at 2018-Feb-21 21:00 UTC. Time now 2018-Feb-21 21:15 UTC.
Position N 38°43' W 009°50'.

Length 88 m; draft 4.5 m.

Type: Cargo ship. MMSI: 305812000.

Date/timePositionNaut miles runAvg speedWind from/ knotsBaromVisibWave heightAir tempDewpointWater temp
2018-Feb-21 21:00N 38°43' W 009°50'5 9.2
2018-Feb-21 20:31N 38°38' W 009°48'5 9.6
2018-Feb-21 20:00N 38°35' W 009°43'5 9.5
2018-Feb-21 19:30N 38°33' W 009°38'5 9.4
2018-Feb-21 19:00N 38°30' W 009°33'5 9.6
2018-Feb-21 18:30N 38°28' W 009°28'5 9.7
2018-Feb-21 18:00N 38°26' W 009°22'5 9.6
2018-Feb-21 17:30N 38°24' W 009°16'5 9.1
2018-Feb-21 17:00N 38°23' W 009°11'510.1
2018-Feb-21 16:30N 38°24' W 009°04'5 9.9
2018-Feb-21 16:00N 38°26' W 008°59'5 9.0
2018-Feb-21 15:29N 38°30' W 008°55'2 3.3
2018-Feb-21 14:49N 38°31' W 008°53'0 0.0
2018-Feb-21 11:13N 38°31' W 008°53'0 0.0
2018-Feb-21 10:58N 38°31' W 008°53'0 0.0
2018-Feb-21 09:25N 38°31' W 008°53'0 0.0
2018-Feb-21 08:55N 38°31' W 008°53'0 0.0
2018-Feb-21 08:25N 38°31' W 008°53'0 0.0
2018-Feb-21 07:58N 38°31' W 008°53'0 0.0
2018-Feb-21 07:28N 38°31' W 008°53'0 0.0
2018-Feb-21 06:55N 38°31' W 008°53'0 0.0
2018-Feb-21 06:25N 38°31' W 008°53'0 0.0
2018-Feb-21 05:43N 38°31' W 008°53'0 0.0
2018-Feb-21 05:25N 38°31' W 008°53'0 0.0
2018-Feb-21 04:55N 38°31' W 008°53'0 0.0
2018-Feb-21 04:25N 38°31' W 008°53'0 0.0
2018-Feb-21 03:58N 38°31' W 008°53'0 0.0
2018-Feb-21 03:28N 38°31' W 008°53'0 0.0
2018-Feb-21 02:58N 38°31' W 008°53'0 0.0
2018-Feb-21 02:28N 38°31' W 008°53'0 0.0
2018-Feb-21 01:58N 38°31' W 008°53'0 0.0
2018-Feb-21 01:25N 38°31' W 008°53'0 0.0
2018-Feb-21 00:55N 38°31' W 008°53'0 0.0
2018-Feb-21 00:28N 38°31' W 008°53'0 0.0
2018-Feb-20 23:48N 38°31' W 008°53'0 0.4
2018-Feb-20 23:28N 38°31' W 008°53'2 5.3
2018-Feb-20 23:00N 38°30' W 008°55'4 8.6
2018-Feb-20 22:30N 38°26' W 008°59'510.0
2018-Feb-20 22:00N 38°24' W 009°04'510.1
2018-Feb-20 21:30N 38°23' W 009°11'5 9.8
2018-Feb-20 21:00N 38°23' W 009°17'5 9.4
2018-Feb-20 20:30N 38°24' W 009°23'5 9.4
2018-Feb-20 19:59N 38°25' W 009°29'4 9.1
2018-Feb-20 19:30N 38°26' W 009°34'5 9.1
2018-Feb-20 19:00N 38°28' W 009°40'5 9.3
2018-Feb-20 18:30N 38°30' W 009°45'5 9.2
2018-Feb-20 17:58N 38°32' W 009°51'4 9.4
2018-Feb-20 17:30N 38°33' W 009°56'4 9.2
2018-Feb-20 17:00N 38°35' W 010°02'5 9.0
2018-Feb-20 16:30N 38°39' W 010°04'5 9.9
2018-Feb-20 16:00N 38°44' W 010°05'1010.0
2018-Feb-20 14:58N 38°54' W 010°05'5 9.7
2018-Feb-20 14:28N 38°59' W 010°05'510.1
2018-Feb-20 14:00N 39°04' W 010°05'510.2
2018-Feb-20 13:28N 39°09' W 010°05'  
2018-Feb-17 08:24N 50°30' W 005°41'6 9.7
2018-Feb-17 07:48N 50°34' W 005°34'3 9.2
2018-Feb-17 07:30N 50°36' W 005°31'5 8.8
2018-Feb-17 07:00N 50°39' W 005°26'10 7.8
2018-Feb-17 05:44N 50°45' W 005°14'2 7.4
2018-Feb-17 05:30N 50°46' W 005°12'4 7.2
2018-Feb-17 05:00N 50°48' W 005°07'4 7.0
2018-Feb-17 04:30N 50°51' W 005°03'4 7.2
2018-Feb-17 04:00N 50°53' W 004°59'4 7.5
2018-Feb-17 03:30N 50°55' W 004°54'4 7.6
2018-Feb-17 03:00N 50°58' W 004°50'4 8.0
2018-Feb-17 02:30N 51°00' W 004°45'5 8.4
2018-Feb-17 01:55N 51°03' W 004°39'3 8.6
2018-Feb-17 01:30N 51°05' W 004°34'6610.8
2018-Feb-16 19:23N 51°33' W 002°58'0 0.0
2018-Feb-15 19:11N 51°34' W 002°58'0 1.6
2018-Feb-15 18:57N 51°33' W 002°58'1 2.5
2018-Feb-15 18:30N 51°32' W 002°59'4 7.0
2018-Feb-15 18:00N 51°29' W 003°01'510.2
2018-Feb-15 17:29N 51°25' W 003°05'713.8
2018-Feb-15 17:00N 51°21' W 003°15'13 3.1
2018-Feb-15 12:54N 51°22' W 003°35'32 6.5
2018-Feb-15 08:00N 51°23' W 004°26'21 9.9
2018-Feb-15 05:51N 51°29' W 004°59'410.0
2018-Feb-15 05:30N 51°32' W 005°03'510.0
2018-Feb-15 05:01N 51°35' W 005°10'510.3
2018-Feb-15 04:31N 51°38' W 005°16'510.0
2018-Feb-15 03:59N 51°42' W 005°22'6210.4
2018-Feb-14 22:02N 52°44' W 005°29'1 8.5
2018-Feb-14 21:57N 52°44' W 005°29'13 7.5
2018-Feb-14 20:17N 52°57' W 005°32'2 6.5
2018-Feb-14 19:57N 52°59' W 005°33'4 6.9
2018-Feb-14 19:26N 53°02' W 005°35'4 6.4
2018-Feb-14 18:50N 53°06' W 005°37'2 7.0
2018-Feb-14 18:30N 53°08' W 005°39'4 7.3
2018-Feb-14 18:00N 53°11' W 005°41'4 7.9
2018-Feb-14 17:26N 53°15' W 005°43'4 8.8
2018-Feb-14 17:00N 53°19' W 005°46'5 8.9
2018-Feb-14 16:30N 53°23' W 005°49'5 9.5
2018-Feb-14 16:00N 53°28' W 005°51'17 9.2
2018-Feb-14 14:11N 53°42' W 006°07'2 9.6
2018-Feb-14 13:57N 53°43' W 006°10'1 2.9
2018-Feb-14 13:26N 53°44' W 006°12'0 0.0
2018-Feb-14 12:56N 53°44' W 006°12'0 0.0
2018-Feb-14 12:26N 53°44' W 006°12'0 0.0
2018-Feb-14 11:59N 53°44' W 006°12'0 0.0
2018-Feb-14 11:29N 53°44' W 006°12'0 0.0
2018-Feb-14 10:35N 53°44' W 006°12'0 0.3
2018-Feb-14 10:29N 53°44' W 006°12'0 0.1
2018-Feb-14 09:59N 53°44' W 006°12'0 0.0
2018-Feb-14 09:29N 53°44' W 006°12'0 0.0
2018-Feb-14 08:59N 53°44' W 006°12'0 0.0
2018-Feb-14 08:26N 53°44' W 006°12'0 0.0
2018-Feb-14 07:59N 53°44' W 006°12'0 0.0
2018-Feb-14 07:29N 53°44' W 006°12'0 0.1
2018-Feb-14 06:56N 53°44' W 006°11'0 0.0
2018-Feb-14 06:29N 53°44' W 006°11'0 0.0
2018-Feb-14 05:35N 53°44' W 006°11'0 0.0
2018-Feb-14 05:11N 53°44' W 006°11'0 0.0
2018-Feb-14 04:50N 53°44' W 006°11'0 0.1
2018-Feb-14 04:14N 53°44' W 006°11'0 0.1
2018-Feb-14 03:56N 53°44' W 006°11'0 0.0
2018-Feb-14 03:29N 53°44' W 006°11'0 0.0
2018-Feb-14 02:53N 53°44' W 006°11'0 0.1
2018-Feb-14 02:29N 53°44' W 006°11'0 0.1
2018-Feb-14 01:59N 53°44' W 006°11'0 0.1
2018-Feb-14 01:29N 53°44' W 006°11'0 0.0
2018-Feb-14 00:53N 53°44' W 006°11'0 0.0
2018-Feb-14 00:29N 53°44' W 006°11'0 0.1
2018-Feb-13 23:56N 53°44' W 006°11'0 0.0
2018-Feb-13 23:29N 53°44' W 006°11'0 0.0
2018-Feb-13 22:56N 53°44' W 006°11'0 0.0
2018-Feb-13 22:17N 53°44' W 006°11'0 0.1
2018-Feb-13 21:59N 53°44' W 006°11'1 2.1
2018-Feb-13 21:31N 53°43' W 006°13'3 0.1
2018-Feb-12 21:07N 53°43' W 006°18'1 5.9
2018-Feb-12 20:56N 53°44' W 006°16'3 5.9
2018-Feb-12 20:30N 53°44' W 006°12'0 0.7
2018-Feb-12 19:54N 53°44' W 006°11'0 0.0
2018-Feb-12 19:24N 53°44' W 006°11'0 0.0
2018-Feb-12 18:36N 53°44' W 006°11'0 0.1
2018-Feb-12 18:30N 53°44' W 006°11'0 0.1
2018-Feb-12 18:00N 53°44' W 006°11'0 0.0
2018-Feb-12 14:48N 53°44' W 006°11'0 0.0
2018-Feb-12 14:30N 53°44' W 006°11'0 0.0
2018-Feb-12 14:00N 53°44' W 006°11'0 0.0
2018-Feb-12 13:24N 53°44' W 006°11'0 0.0
2018-Feb-12 13:00N 53°44' W 006°11'0 0.0
2018-Feb-12 12:24N 53°44' W 006°11'0 0.0
2018-Feb-12 11:54N 53°44' W 006°11'0 0.0
2018-Feb-12 11:24N 53°44' W 006°11'0 0.2
2018-Feb-12 10:59N 53°44' W 006°11'29 7.5
2018-Feb-12 07:04N 53°18' W 005°46'2311.0
2018-Feb-12 05:00N 52°56' W 005°36'611.4
2018-Feb-12 04:30N 52°51' W 005°37'  

Dump ship's entire track history